createdAt,value
2019-02-06T00:00:53.415Z,39.03
2019-02-06T00:01:32.443Z,40.75
2019-02-06T00:02:14.013Z,39.95
2019-02-06T00:02:47.063Z,39.90
2019-02-06T00:03:21.400Z,40.33
2019-02-06T00:03:54.661Z,40.03
2019-02-06T00:04:27.726Z,39.27
2019-02-06T00:05:00.877Z,39.33
2019-02-06T00:05:34.025Z,40.65
2019-02-06T00:06:07.075Z,41.80
2019-02-06T00:06:40.253Z,38.38
2019-02-06T00:07:13.309Z,40.80
2019-02-06T00:07:46.465Z,40.52
2019-02-06T00:08:19.649Z,40.65
2019-02-06T00:08:53.929Z,39.23
2019-02-06T00:09:27.000Z,41.20
2019-02-06T00:10:00.332Z,40.83
2019-02-06T00:10:34.172Z,39.98
2019-02-06T00:11:07.382Z,39.85
2019-02-06T00:11:40.585Z,40.90
2019-02-06T00:12:13.630Z,40.67
2019-02-06T00:12:47.102Z,40.88
2019-02-06T00:13:20.235Z,41.10
2019-02-06T00:13:53.714Z,40.48
2019-02-06T00:14:26.743Z,41.28
2019-02-06T00:14:59.802Z,40.25
2019-02-06T00:15:33.048Z,40.30
2019-02-06T00:16:06.358Z,40.33
2019-02-06T00:16:39.413Z,41.58
2019-02-06T00:17:12.834Z,40.23
2019-02-06T00:17:46.038Z,40.23
2019-02-06T00:18:20.005Z,41.02
2019-02-06T00:18:53.207Z,41.40
2019-02-06T00:19:26.203Z,41.33
2019-02-06T00:19:59.235Z,40.88
2019-02-06T00:20:32.247Z,40.00
2019-02-06T00:21:05.432Z,41.25
2019-02-06T00:21:38.489Z,39.78
2019-02-06T00:22:11.784Z,38.75
2019-02-06T00:22:44.768Z,39.95
2019-02-06T00:23:17.823Z,40.03
2019-02-06T00:23:50.938Z,40.73
2019-02-06T00:24:24.208Z,39.83
2019-02-06T00:24:57.351Z,39.60
2019-02-06T00:25:30.608Z,40.95
2019-02-06T00:26:04.014Z,40.98
2019-02-06T00:26:37.282Z,41.30
2019-02-06T00:27:10.356Z,40.30
2019-02-06T00:27:43.902Z,40.33
2019-02-06T00:28:16.920Z,39.25
2019-02-06T00:28:50.159Z,40.08
2019-02-06T00:29:23.406Z,40.40
2019-02-06T00:29:56.481Z,40.08
2019-02-06T00:30:29.456Z,40.03
2019-02-06T00:31:02.802Z,40.30
2019-02-06T00:31:35.874Z,39.67
2019-02-06T00:32:09.201Z,40.10
2019-02-06T00:32:42.420Z,39.60
2019-02-06T00:33:15.611Z,40.28
2019-02-06T00:33:48.670Z,39.95
2019-02-06T00:34:21.733Z,40.10
2019-02-06T00:34:54.900Z,39.33
2019-02-06T00:35:28.093Z,38.67
2019-02-06T00:36:01.254Z,38.95
2019-02-06T00:36:34.379Z,39.78
2019-02-06T00:37:07.525Z,39.55
2019-02-06T00:37:40.546Z,39.05
2019-02-06T00:38:13.574Z,39.55
2019-02-06T00:38:46.582Z,39.45
2019-02-06T00:39:19.598Z,39.10
2019-02-06T00:39:52.614Z,39.58
2019-02-06T00:40:25.754Z,38.33
2019-02-06T00:40:58.904Z,39.45
2019-02-06T00:41:32.321Z,38.78
2019-02-06T00:42:05.467Z,38.95
2019-02-06T00:42:39.186Z,38.45
2019-02-06T00:43:12.359Z,38.75
2019-02-06T00:43:45.862Z,38.58
2019-02-06T00:44:18.970Z,38.23
2019-02-06T00:44:52.178Z,38.58
2019-02-06T00:45:25.194Z,38.10
2019-02-06T00:45:58.338Z,38.55
2019-02-06T00:46:31.458Z,37.45
2019-02-06T00:47:04.376Z,38.50
2019-02-06T00:47:37.398Z,37.70
2019-02-06T00:48:10.432Z,39.25
2019-02-06T00:48:43.511Z,39.05
2019-02-06T00:49:17.628Z,39.18
2019-02-06T00:49:50.654Z,39.27
2019-02-06T00:50:23.742Z,37.93
2019-02-06T00:50:56.754Z,38.33
2019-02-06T00:51:29.672Z,38.98
2019-02-06T00:52:02.804Z,38.95
2019-02-06T00:52:35.903Z,38.90
2019-02-06T00:53:08.920Z,38.35
2019-02-06T00:53:41.945Z,38.35
2019-02-06T00:54:15.055Z,37.73
2019-02-06T00:54:48.083Z,38.85
2019-02-06T00:55:21.393Z,38.23
2019-02-06T00:55:54.471Z,38.53
2019-02-06T00:56:28.010Z,38.63
2019-02-06T00:57:01.014Z,38.30
2019-02-06T00:57:34.690Z,38.63
2019-02-06T00:58:07.744Z,39.38
2019-02-06T00:58:40.756Z,38.98
2019-02-06T00:59:14.372Z,39.08
2019-02-06T00:59:47.438Z,38.60
2019-02-06T01:00:21.777Z,38.70
2019-02-06T01:00:54.778Z,38.65
2019-02-06T01:01:27.947Z,38.78
2019-02-06T01:02:00.980Z,37.98
2019-02-06T01:02:34.084Z,38.88
2019-02-06T01:03:07.290Z,38.83
2019-02-06T01:03:40.613Z,37.93
2019-02-06T01:04:13.869Z,38.80
2019-02-06T01:04:47.004Z,39.08
2019-02-06T01:05:20.646Z,38.00
2019-02-06T01:05:53.652Z,39.35
2019-02-06T01:06:26.760Z,37.83
2019-02-06T01:06:59.888Z,37.45
2019-02-06T01:07:32.902Z,36.08
2019-02-06T01:08:05.959Z,38.23
2019-02-06T01:08:38.976Z,37.35
2019-02-06T01:09:11.966Z,36.63
2019-02-06T01:09:45.128Z,37.03
2019-02-06T01:10:18.974Z,37.95
2019-02-06T01:10:51.969Z,37.25
2019-02-06T01:11:26.492Z,35.70
2019-02-06T01:11:59.506Z,37.42
2019-02-06T01:12:32.804Z,37.67
2019-02-06T01:13:05.938Z,37.20
2019-02-06T01:13:39.956Z,38.30
2019-02-06T01:14:12.982Z,35.80
2019-02-06T01:14:46.072Z,36.73
2019-02-06T01:15:19.159Z,37.08
2019-02-06T01:15:52.336Z,37.13
2019-02-06T01:16:25.344Z,36.38
2019-02-06T01:16:58.364Z,37.85
2019-02-06T01:17:31.482Z,36.93
2019-02-06T01:18:04.847Z,36.58
2019-02-06T01:18:37.867Z,36.23
2019-02-06T01:19:10.929Z,36.83
2019-02-06T01:19:43.961Z,37.58
2019-02-06T01:20:17.022Z,37.00
2019-02-06T01:20:50.130Z,36.60
2019-02-06T01:21:23.142Z,37.03
2019-02-06T01:21:56.145Z,36.98
2019-02-06T01:22:29.295Z,36.85
2019-02-06T01:23:02.482Z,36.00
2019-02-06T01:23:35.512Z,36.17
2019-02-06T01:24:08.878Z,37.58
2019-02-06T01:24:41.918Z,36.70
2019-02-06T01:25:16.098Z,37.20
2019-02-06T01:25:50.340Z,36.45
2019-02-06T01:26:24.371Z,37.10
2019-02-06T01:26:57.529Z,36.85
2019-02-06T01:27:30.596Z,36.58
2019-02-06T01:28:03.770Z,35.68
2019-02-06T01:28:36.912Z,36.15
2019-02-06T01:29:10.087Z,35.90
2019-02-06T01:29:44.348Z,36.80
2019-02-06T01:30:21.366Z,37.40
2019-02-06T01:31:06.344Z,36.25
2019-02-06T01:31:39.392Z,36.33
2019-02-06T01:32:12.690Z,36.17
2019-02-06T01:32:45.885Z,35.98
2019-02-06T01:33:19.398Z,36.55
2019-02-06T01:33:52.484Z,36.75
2019-02-06T01:34:27.191Z,36.63
2019-02-06T01:35:00.357Z,37.05
2019-02-06T01:35:34.449Z,36.68
2019-02-06T01:36:07.600Z,36.35
2019-02-06T01:36:40.607Z,36.93
2019-02-06T01:37:13.661Z,36.95
2019-02-06T01:37:47.946Z,36.00
2019-02-06T01:38:21.025Z,36.48
2019-02-06T01:38:54.032Z,36.50
2019-02-06T01:39:27.109Z,36.10
2019-02-06T01:40:00.329Z,36.38
2019-02-06T01:40:33.469Z,35.80
2019-02-06T01:41:06.575Z,37.10
2019-02-06T01:41:39.759Z,36.90
2019-02-06T01:42:14.327Z,36.70
2019-02-06T01:42:47.596Z,36.65
2019-02-06T01:43:20.587Z,37.17
2019-02-06T01:43:53.640Z,35.85
2019-02-06T01:44:26.734Z,35.65
2019-02-06T01:44:59.920Z,37.08
2019-02-06T01:45:33.009Z,36.42
2019-02-06T01:46:06.173Z,36.75
2019-02-06T01:46:39.341Z,36.40
2019-02-06T01:47:12.775Z,36.48
2019-02-06T01:47:47.331Z,36.58
2019-02-06T01:48:20.927Z,35.65
2019-02-06T01:48:55.462Z,36.35
2019-02-06T01:49:28.936Z,36.95
2019-02-06T01:50:02.166Z,37.10
2019-02-06T01:50:35.815Z,37.00
2019-02-06T01:51:10.495Z,35.95
2019-02-06T01:51:43.615Z,36.80
2019-02-06T01:52:18.270Z,36.50
2019-02-06T01:52:51.356Z,36.85
2019-02-06T01:53:24.351Z,36.00
2019-02-06T01:53:57.403Z,36.55
2019-02-06T01:54:30.322Z,36.85
2019-02-06T01:55:04.545Z,36.75
2019-02-06T01:55:37.550Z,37.23
2019-02-06T01:56:10.617Z,36.58
2019-02-06T01:56:43.625Z,36.55
2019-02-06T01:57:16.713Z,36.55
2019-02-06T01:57:49.710Z,35.83
2019-02-06T01:58:22.891Z,35.58
2019-02-06T01:58:55.862Z,36.95
2019-02-06T01:59:28.913Z,36.30
2019-02-06T02:00:02.634Z,36.35
2019-02-06T02:00:36.927Z,36.15
2019-02-06T02:01:10.021Z,37.30
2019-02-06T02:01:43.106Z,35.98
2019-02-06T02:02:16.034Z,35.45
2019-02-06T02:02:49.187Z,35.88
2019-02-06T02:03:22.589Z,35.48
2019-02-06T02:03:55.678Z,35.92
2019-02-06T02:04:29.113Z,36.53
2019-02-06T02:05:02.172Z,35.92
2019-02-06T02:05:37.858Z,36.40
2019-02-06T02:06:10.416Z,35.75
2019-02-06T02:06:43.936Z,36.35
2019-02-06T02:07:17.051Z,35.98
2019-02-06T02:07:50.480Z,35.33
2019-02-06T02:08:23.719Z,36.23
2019-02-06T02:08:59.931Z,35.68
2019-02-06T02:09:33.137Z,35.80
2019-02-06T02:10:06.889Z,35.75
2019-02-06T02:10:39.935Z,35.43
2019-02-06T02:11:13.031Z,36.05
2019-02-06T02:11:46.205Z,36.60
2019-02-06T02:12:20.579Z,35.40
2019-02-06T02:12:53.770Z,35.90
2019-02-06T02:13:26.761Z,36.67
2019-02-06T02:13:59.811Z,36.25
2019-02-06T02:14:32.909Z,36.65
2019-02-06T02:15:08.281Z,34.88
2019-02-06T02:15:41.449Z,34.38
2019-02-06T02:16:14.523Z,35.95
2019-02-06T02:16:47.531Z,35.83
2019-02-06T02:17:20.619Z,35.13
2019-02-06T02:17:53.571Z,35.68
2019-02-06T02:18:26.701Z,36.00
2019-02-06T02:18:59.727Z,35.20
2019-02-06T02:19:32.858Z,34.30
2019-02-06T02:20:11.824Z,35.60
2019-02-06T02:20:44.917Z,34.65
2019-02-06T02:21:18.081Z,35.58
2019-02-06T02:21:51.108Z,34.75
2019-02-06T02:22:24.376Z,35.88
2019-02-06T02:22:57.728Z,34.10
2019-02-06T02:23:30.955Z,36.25
2019-02-06T02:24:04.219Z,35.83
2019-02-06T02:24:37.402Z,35.28
2019-02-06T02:25:12.191Z,35.13
2019-02-06T02:25:45.319Z,35.30
2019-02-06T02:26:19.135Z,34.13
2019-02-06T02:26:52.185Z,35.95
2019-02-06T02:27:25.605Z,35.55
2019-02-06T02:27:58.642Z,35.45
2019-02-06T02:28:31.801Z,34.60
2019-02-06T02:29:04.821Z,35.73
2019-02-06T02:29:37.945Z,35.10
2019-02-06T02:30:16.004Z,35.73
2019-02-06T02:30:52.307Z,35.43
2019-02-06T02:31:25.405Z,35.98
2019-02-06T02:31:58.451Z,33.80
2019-02-06T02:32:31.607Z,35.40
2019-02-06T02:33:04.729Z,35.23
2019-02-06T02:33:37.830Z,34.95
2019-02-06T02:34:11.097Z,34.15
2019-02-06T02:34:44.003Z,35.33
2019-02-06T02:35:17.185Z,34.63
2019-02-06T02:35:50.257Z,35.85
2019-02-06T02:36:23.323Z,34.43
2019-02-06T02:36:56.417Z,35.03
2019-02-06T02:37:29.385Z,36.23
2019-02-06T02:38:02.518Z,35.88
2019-02-06T02:38:35.599Z,36.05
2019-02-06T02:39:08.795Z,35.58
2019-02-06T02:39:41.945Z,35.65
2019-02-06T02:40:15.176Z,35.50
2019-02-06T02:40:48.352Z,35.52
2019-02-06T02:41:21.359Z,35.68
2019-02-06T02:41:54.484Z,35.50
2019-02-06T02:42:27.384Z,35.25
2019-02-06T02:43:00.440Z,35.15
2019-02-06T02:43:33.933Z,35.15
2019-02-06T02:44:06.883Z,35.17
2019-02-06T02:44:41.176Z,35.38
2019-02-06T02:45:15.645Z,35.40
2019-02-06T02:45:49.237Z,35.25
2019-02-06T02:46:22.278Z,34.60
2019-02-06T02:46:55.305Z,34.78
2019-02-06T02:47:28.378Z,35.40
2019-02-06T02:48:01.372Z,35.92
2019-02-06T02:48:34.311Z,34.95
2019-02-06T02:49:07.333Z,35.78
2019-02-06T02:49:40.317Z,35.10
2019-02-06T02:50:13.469Z,34.30
2019-02-06T02:50:47.259Z,35.17
2019-02-06T02:51:20.307Z,35.52
2019-02-06T02:51:53.562Z,35.43
2019-02-06T02:52:26.593Z,35.33
2019-02-06T02:52:59.681Z,35.75
2019-02-06T02:53:32.714Z,34.98
2019-02-06T02:54:05.836Z,34.80
2019-02-06T02:54:38.846Z,34.88
2019-02-06T02:55:12.279Z,35.20
2019-02-06T02:55:45.421Z,34.85
2019-02-06T02:56:18.578Z,33.95
2019-02-06T02:56:51.479Z,35.65
2019-02-06T02:57:24.705Z,35.03
2019-02-06T02:57:57.707Z,35.05
2019-02-06T02:58:31.154Z,34.92
2019-02-06T02:59:04.151Z,35.63
2019-02-06T02:59:37.620Z,35.58
2019-02-06T03:00:15.400Z,34.30
2019-02-06T03:01:08.619Z,34.95
2019-02-06T03:01:59.531Z,34.50
2019-02-06T03:02:52.255Z,35.03
2019-02-06T03:03:36.961Z,35.50
2019-02-06T03:04:15.689Z,33.48
2019-02-06T03:04:52.945Z,34.23
2019-02-06T03:05:30.553Z,35.05
2019-02-06T03:06:04.957Z,35.05
2019-02-06T03:06:38.907Z,35.20
2019-02-06T03:07:11.955Z,34.95
2019-02-06T03:07:45.085Z,33.90
2019-02-06T03:08:18.057Z,33.73
2019-02-06T03:08:51.511Z,34.75
2019-02-06T03:09:24.688Z,33.98
2019-02-06T03:09:58.143Z,34.35
2019-02-06T03:10:31.137Z,34.78
2019-02-06T03:11:04.685Z,34.33
2019-02-06T03:11:37.721Z,33.75
2019-02-06T03:12:10.734Z,34.45
2019-02-06T03:12:44.981Z,34.45
2019-02-06T03:13:18.355Z,34.85
2019-02-06T03:13:51.405Z,34.65
2019-02-06T03:14:24.396Z,34.25
2019-02-06T03:14:57.465Z,33.83
2019-02-06T03:15:31.566Z,33.73
2019-02-06T03:16:06.267Z,35.03
2019-02-06T03:16:40.488Z,33.83
2019-02-06T03:17:13.624Z,34.15
2019-02-06T03:17:46.654Z,34.27
2019-02-06T03:18:19.741Z,34.38
2019-02-06T03:18:52.730Z,34.13
2019-02-06T03:19:25.824Z,33.83
2019-02-06T03:19:58.904Z,34.27
2019-02-06T03:20:31.994Z,34.33
2019-02-06T03:21:05.148Z,33.48
2019-02-06T03:21:38.264Z,33.67
2019-02-06T03:22:11.300Z,34.05
2019-02-06T03:22:44.355Z,34.18
2019-02-06T03:23:17.488Z,33.80
2019-02-06T03:23:51.042Z,33.48
2019-02-06T03:24:24.084Z,34.53
2019-02-06T03:24:57.563Z,34.20
2019-02-06T03:25:30.568Z,34.35
2019-02-06T03:26:04.106Z,34.33
2019-02-06T03:26:37.184Z,34.73
2019-02-06T03:27:10.230Z,33.65
2019-02-06T03:27:43.269Z,34.30
2019-02-06T03:28:16.146Z,33.50
2019-02-06T03:28:49.166Z,33.73
2019-02-06T03:29:22.144Z,33.60
2019-02-06T03:29:56.256Z,34.60
2019-02-06T03:30:29.286Z,34.00
2019-02-06T03:31:02.535Z,34.08
2019-02-06T03:31:35.574Z,34.33
2019-02-06T03:32:08.593Z,33.83
2019-02-06T03:32:44.401Z,33.88
2019-02-06T03:33:17.335Z,34.45
2019-02-06T03:33:50.413Z,34.25
2019-02-06T03:34:23.536Z,34.15
2019-02-06T03:34:57.117Z,34.27
2019-02-06T03:35:30.239Z,35.00
2019-02-06T03:36:03.686Z,34.40
2019-02-06T03:36:40.320Z,34.53
2019-02-06T03:37:11.656Z,34.20
2019-02-06T03:37:44.671Z,33.73
2019-02-06T03:38:20.609Z,34.10
2019-02-06T03:38:53.630Z,33.88
2019-02-06T03:39:26.716Z,34.05
2019-02-06T03:39:59.724Z,33.90
2019-02-06T03:40:32.894Z,34.13
2019-02-06T03:41:06.133Z,33.55
2019-02-06T03:41:39.249Z,35.20
2019-02-06T03:42:12.646Z,33.50
2019-02-06T03:42:45.930Z,34.75
2019-02-06T03:43:19.340Z,34.95
2019-02-06T03:43:52.494Z,34.38
2019-02-06T03:44:25.516Z,34.15
2019-02-06T03:44:58.606Z,33.63
2019-02-06T03:45:31.963Z,33.73
2019-02-06T03:46:05.938Z,33.38
2019-02-06T03:46:39.024Z,34.35
2019-02-06T03:47:12.064Z,34.90
2019-02-06T03:47:45.075Z,34.18
2019-02-06T03:48:18.158Z,34.03
2019-02-06T03:48:51.152Z,34.03
2019-02-06T03:49:24.282Z,34.05
2019-02-06T03:49:57.276Z,33.83
2019-02-06T03:50:30.570Z,33.80
2019-02-06T03:51:03.802Z,33.98
2019-02-06T03:51:36.961Z,34.92
2019-02-06T03:52:09.988Z,33.85
2019-02-06T03:52:44.091Z,34.40
2019-02-06T03:53:17.110Z,34.50
2019-02-06T03:53:50.222Z,34.13
2019-02-06T03:54:23.212Z,35.08
2019-02-06T03:54:56.593Z,33.73
2019-02-06T03:55:29.606Z,34.45
2019-02-06T03:56:03.134Z,34.55
2019-02-06T03:56:36.141Z,34.15
2019-02-06T03:57:09.706Z,34.30
2019-02-06T03:57:43.928Z,34.15
2019-02-06T03:58:17.130Z,34.90
2019-02-06T03:58:50.133Z,34.48
2019-02-06T03:59:23.320Z,34.38
2019-02-06T03:59:56.404Z,35.00
2019-02-06T04:00:29.759Z,34.92
2019-02-06T04:01:02.884Z,34.63
2019-02-06T04:01:35.953Z,34.50
2019-02-06T04:02:08.953Z,34.25
2019-02-06T04:02:42.036Z,34.90
2019-02-06T04:03:15.000Z,34.08
2019-02-06T04:03:48.090Z,34.63
2019-02-06T04:04:21.091Z,34.65
2019-02-06T04:04:54.880Z,34.60
2019-02-06T04:05:27.786Z,34.58
2019-02-06T04:06:01.125Z,34.55
2019-02-06T04:06:34.037Z,35.10
2019-02-06T04:07:07.258Z,34.73
2019-02-06T04:07:40.275Z,34.83
2019-02-06T04:08:13.327Z,33.92
2019-02-06T04:08:47.422Z,33.65
2019-02-06T04:09:20.391Z,34.63
2019-02-06T04:09:53.802Z,35.38
2019-02-06T04:10:27.058Z,35.33
2019-02-06T04:11:00.597Z,35.60
2019-02-06T04:11:34.236Z,34.75
2019-02-06T04:12:07.672Z,35.95
2019-02-06T04:12:40.752Z,34.43
2019-02-06T04:13:14.799Z,35.75
2019-02-06T04:13:47.969Z,34.60
2019-02-06T04:14:20.967Z,34.67
2019-02-06T04:14:54.900Z,35.52
2019-02-06T04:15:28.010Z,35.95
2019-02-06T04:16:01.165Z,35.35
2019-02-06T04:16:34.271Z,35.25
2019-02-06T04:17:07.547Z,35.25
2019-02-06T04:17:40.636Z,35.10
2019-02-06T04:18:13.826Z,35.50
2019-02-06T04:18:46.926Z,36.15
2019-02-06T04:19:20.148Z,35.28
2019-02-06T04:19:53.258Z,35.48
2019-02-06T04:20:26.466Z,36.13
2019-02-06T04:20:59.562Z,35.03
2019-02-06T04:21:32.865Z,34.98
2019-02-06T04:22:05.957Z,35.75
2019-02-06T04:22:39.102Z,36.10
2019-02-06T04:23:15.399Z,35.92
2019-02-06T04:23:48.500Z,34.98
2019-02-06T04:24:21.419Z,35.65
2019-02-06T04:24:54.599Z,36.13
2019-02-06T04:25:27.716Z,36.40
2019-02-06T04:26:00.863Z,35.58
2019-02-06T04:26:33.925Z,35.83
2019-02-06T04:27:07.408Z,36.25
2019-02-06T04:27:40.611Z,36.00
2019-02-06T04:28:14.180Z,35.03
2019-02-06T04:28:47.926Z,35.17
2019-02-06T04:29:21.497Z,37.03
2019-02-06T04:29:54.567Z,36.00
2019-02-06T04:30:27.608Z,36.15
2019-02-06T04:31:00.681Z,36.00
2019-02-06T04:31:34.465Z,36.45
2019-02-06T04:32:07.661Z,35.73
2019-02-06T04:32:40.747Z,36.50
2019-02-06T04:33:13.924Z,35.80
2019-02-06T04:33:46.889Z,37.25
2019-02-06T04:34:19.940Z,36.30
2019-02-06T04:34:54.488Z,36.17
2019-02-06T04:35:27.620Z,35.70
2019-02-06T04:36:00.708Z,35.45
2019-02-06T04:36:33.785Z,36.50
2019-02-06T04:37:07.194Z,35.73
2019-02-06T04:37:40.287Z,36.23
2019-02-06T04:38:13.165Z,35.68
2019-02-06T04:38:46.227Z,36.23
2019-02-06T04:39:19.488Z,36.33
2019-02-06T04:39:52.653Z,35.68
2019-02-06T04:40:25.703Z,35.80
2019-02-06T04:40:58.753Z,36.45
2019-02-06T04:41:31.807Z,36.58
2019-02-06T04:42:05.174Z,36.13
2019-02-06T04:42:38.298Z,36.75
2019-02-06T04:43:11.847Z,36.28
2019-02-06T04:43:44.872Z,36.15
2019-02-06T04:44:18.432Z,35.75
2019-02-06T04:44:51.401Z,35.58
2019-02-06T04:45:25.993Z,35.98
2019-02-06T04:46:00.733Z,37.00
2019-02-06T04:46:33.675Z,36.80
2019-02-06T04:47:06.948Z,37.17
2019-02-06T04:47:39.915Z,36.17
2019-02-06T04:48:12.971Z,36.25
2019-02-06T04:48:46.018Z,37.42
2019-02-06T04:49:19.168Z,36.05
2019-02-06T04:49:52.365Z,37.30
2019-02-06T04:50:25.601Z,36.53
2019-02-06T04:50:58.672Z,36.35
2019-02-06T04:51:31.669Z,36.13
2019-02-06T04:52:05.857Z,36.30
2019-02-06T04:52:39.062Z,36.35
2019-02-06T04:53:12.051Z,36.25
2019-02-06T04:53:45.097Z,36.45
2019-02-06T04:54:18.044Z,37.60
2019-02-06T04:54:51.096Z,36.33
2019-02-06T04:55:24.199Z,37.65
2019-02-06T04:55:57.221Z,36.40
2019-02-06T04:56:30.255Z,36.77
2019-02-06T04:57:03.545Z,35.20
2019-02-06T04:57:36.612Z,36.73
2019-02-06T04:58:10.059Z,36.13
2019-02-06T04:58:43.180Z,37.17
2019-02-06T04:59:16.612Z,36.17
2019-02-06T04:59:49.548Z,36.90
2019-02-06T05:00:24.263Z,37.08
2019-02-06T05:00:57.241Z,37.65
2019-02-06T05:01:30.344Z,37.13
2019-02-06T05:02:04.579Z,37.93
2019-02-06T05:02:37.733Z,36.90
2019-02-06T05:03:10.827Z,37.28
2019-02-06T05:03:43.946Z,37.28
2019-02-06T05:04:17.009Z,38.10
2019-02-06T05:04:50.185Z,38.35
2019-02-06T05:05:23.529Z,37.53
2019-02-06T05:05:56.884Z,38.02
2019-02-06T05:06:29.823Z,37.95
2019-02-06T05:07:02.870Z,38.13
2019-02-06T05:07:35.947Z,37.63
2019-02-06T05:08:09.033Z,38.05
2019-02-06T05:08:42.128Z,37.20
2019-02-06T05:09:15.173Z,37.08
2019-02-06T05:09:48.120Z,38.45
2019-02-06T05:10:21.130Z,37.73
2019-02-06T05:10:54.257Z,38.33
2019-02-06T05:11:28.945Z,38.02
2019-02-06T05:12:02.035Z,37.83
2019-02-06T05:12:35.231Z,36.93
2019-02-06T05:13:08.571Z,37.45
2019-02-06T05:13:41.726Z,37.38
2019-02-06T05:14:14.888Z,37.25
2019-02-06T05:14:48.013Z,37.65
2019-02-06T05:15:21.161Z,36.75
2019-02-06T05:15:54.289Z,38.00
2019-02-06T05:16:27.435Z,37.28
2019-02-06T05:17:00.462Z,37.13
2019-02-06T05:17:33.503Z,37.00
2019-02-06T05:18:06.658Z,38.35
2019-02-06T05:18:39.569Z,38.05
2019-02-06T05:19:12.517Z,37.20
2019-02-06T05:19:45.550Z,38.58
2019-02-06T05:20:32.809Z,37.67
2019-02-06T05:21:05.835Z,37.28
2019-02-06T05:21:38.897Z,38.33
2019-02-06T05:22:11.933Z,38.35
2019-02-06T05:22:44.936Z,37.45
2019-02-06T05:23:17.851Z,37.40
2019-02-06T05:23:51.065Z,38.30
2019-02-06T05:24:24.201Z,37.38
2019-02-06T05:24:57.105Z,36.80
2019-02-06T05:25:30.283Z,38.02
2019-02-06T05:26:03.544Z,36.30
2019-02-06T05:26:36.659Z,37.40
2019-02-06T05:27:09.684Z,37.13
2019-02-06T05:27:42.883Z,37.67
2019-02-06T05:28:18.190Z,37.40
2019-02-06T05:28:51.482Z,37.58
2019-02-06T05:29:25.501Z,37.67
2019-02-06T05:29:58.514Z,37.35
2019-02-06T05:30:31.647Z,37.17
2019-02-06T05:31:04.699Z,38.48
2019-02-06T05:31:37.970Z,38.42
2019-02-06T05:32:11.144Z,38.05
2019-02-06T05:32:44.557Z,36.93
2019-02-06T05:33:17.612Z,38.30
2019-02-06T05:33:51.166Z,37.65
2019-02-06T05:34:24.213Z,38.75
2019-02-06T05:34:57.311Z,37.50
2019-02-06T05:35:30.501Z,37.17
2019-02-06T05:36:04.012Z,38.75
2019-02-06T05:36:37.086Z,37.60
2019-02-06T05:37:10.000Z,37.83
2019-02-06T05:37:43.134Z,38.30
2019-02-06T05:38:16.172Z,37.90
2019-02-06T05:38:49.679Z,37.85
2019-02-06T05:39:22.687Z,38.00
2019-02-06T05:39:55.814Z,38.10
2019-02-06T05:40:28.930Z,37.75
2019-02-06T05:41:01.985Z,39.03
2019-02-06T05:41:34.891Z,38.67
2019-02-06T05:42:08.023Z,38.83
2019-02-06T05:42:42.442Z,38.23
2019-02-06T05:43:15.398Z,39.27
2019-02-06T05:43:49.163Z,38.23
2019-02-06T05:44:22.134Z,38.63
2019-02-06T05:44:56.839Z,38.58
2019-02-06T05:45:30.085Z,38.80
2019-02-06T05:46:03.189Z,38.17
2019-02-06T05:46:36.739Z,38.95
2019-02-06T05:47:09.878Z,38.73
2019-02-06T05:47:43.308Z,39.00
2019-02-06T05:48:16.345Z,38.85
2019-02-06T05:48:49.617Z,38.90
2019-02-06T05:49:22.721Z,38.63
2019-02-06T05:49:55.849Z,38.70
2019-02-06T05:50:28.857Z,39.00
2019-02-06T05:51:01.810Z,39.83
2019-02-06T05:51:34.812Z,39.67
2019-02-06T05:52:07.956Z,38.88
2019-02-06T05:52:42.479Z,39.83
2019-02-06T05:53:15.420Z,39.23
2019-02-06T05:53:48.410Z,39.35
2019-02-06T05:54:21.494Z,38.78
2019-02-06T05:54:54.490Z,39.58
2019-02-06T05:55:27.428Z,38.63
2019-02-06T05:56:00.344Z,39.90
2019-02-06T05:56:33.387Z,38.60
2019-02-06T05:57:06.343Z,39.60
2019-02-06T05:57:39.522Z,39.23
2019-02-06T05:58:12.577Z,39.35
2019-02-06T05:59:03.765Z,39.70
2019-02-06T05:59:37.898Z,39.27
2019-02-06T06:00:43.922Z,39.23
2019-02-06T06:01:18.852Z,38.95
2019-02-06T06:01:53.014Z,39.60
2019-02-06T06:02:26.145Z,39.78
2019-02-06T06:02:59.331Z,40.12
2019-02-06T06:03:32.470Z,39.85
2019-02-06T06:04:05.501Z,40.12
2019-02-06T06:04:38.566Z,38.95
2019-02-06T06:05:11.687Z,40.67
2019-02-06T06:05:44.876Z,40.45
2019-02-06T06:06:17.885Z,39.42
2019-02-06T06:06:51.050Z,39.92
2019-02-06T06:07:24.374Z,39.58
2019-02-06T06:07:57.541Z,40.10
2019-02-06T06:08:31.070Z,38.75
2019-02-06T06:09:07.324Z,41.60
2019-02-06T06:09:40.564Z,39.70
2019-02-06T06:10:15.016Z,40.63
2019-02-06T06:10:48.419Z,40.38
2019-02-06T06:11:21.386Z,40.35
2019-02-06T06:11:54.384Z,41.23
2019-02-06T06:12:27.334Z,40.45
2019-02-06T06:13:00.328Z,40.15
2019-02-06T06:13:33.509Z,41.50
2019-02-06T06:14:06.588Z,41.20
2019-02-06T06:14:39.524Z,39.92
2019-02-06T06:15:14.544Z,40.63
2019-02-06T06:15:47.587Z,40.88
2019-02-06T06:16:20.606Z,40.80
2019-02-06T06:16:53.790Z,42.20
2019-02-06T06:17:26.701Z,41.10
2019-02-06T06:17:59.902Z,40.58
2019-02-06T06:18:32.914Z,41.28
2019-02-06T06:19:06.083Z,41.05
2019-02-06T06:19:39.188Z,41.33
2019-02-06T06:20:14.183Z,40.52
2019-02-06T06:20:47.218Z,40.17
2019-02-06T06:21:20.240Z,41.15
2019-02-06T06:21:53.259Z,40.75
2019-02-06T06:22:27.644Z,40.35
2019-02-06T06:23:00.694Z,41.15
2019-02-06T06:23:34.069Z,41.15
2019-02-06T06:24:09.149Z,41.45
2019-02-06T06:24:42.253Z,40.17
2019-02-06T06:25:15.843Z,41.18
2019-02-06T06:25:49.282Z,41.15
2019-02-06T06:26:22.292Z,41.63
2019-02-06T06:26:55.223Z,41.20
2019-02-06T06:27:28.038Z,40.78
2019-02-06T06:28:01.942Z,41.83
2019-02-06T06:28:35.064Z,40.48
2019-02-06T06:29:08.122Z,41.53
2019-02-06T06:29:41.174Z,41.30
2019-02-06T06:30:16.109Z,41.88
2019-02-06T06:30:49.274Z,40.80
2019-02-06T06:31:22.295Z,41.80
2019-02-06T06:31:55.377Z,40.83
2019-02-06T06:32:31.774Z,40.63
2019-02-06T06:33:03.608Z,42.38
2019-02-06T06:33:36.794Z,41.35
2019-02-06T06:34:09.819Z,41.02
2019-02-06T06:34:43.542Z,41.48
2019-02-06T06:35:16.816Z,41.95
2019-02-06T06:35:49.889Z,41.68
2019-02-06T06:36:22.956Z,41.58
2019-02-06T06:36:56.903Z,41.70
2019-02-06T06:37:31.842Z,41.58
2019-02-06T06:38:05.139Z,41.95
2019-02-06T06:38:38.267Z,40.88
2019-02-06T06:39:13.041Z,41.00
2019-02-06T06:39:46.177Z,41.45
2019-02-06T06:40:20.913Z,41.20
2019-02-06T06:40:54.121Z,42.23
2019-02-06T06:41:27.317Z,42.27
2019-02-06T06:42:00.781Z,41.73
2019-02-06T06:42:33.875Z,42.10
2019-02-06T06:43:07.220Z,41.45
2019-02-06T06:43:40.137Z,40.90
2019-02-06T06:44:13.188Z,41.00
2019-02-06T06:44:48.033Z,42.10
2019-02-06T06:45:22.108Z,40.85
2019-02-06T06:45:55.186Z,42.05
2019-02-06T06:46:28.146Z,42.98
2019-02-06T06:47:01.513Z,41.88
2019-02-06T06:47:34.732Z,42.23
2019-02-06T06:48:07.971Z,41.60
2019-02-06T06:48:41.058Z,41.13
2019-02-06T06:49:15.290Z,41.80
2019-02-06T06:49:49.104Z,40.80
2019-02-06T06:50:23.101Z,41.75
2019-02-06T06:50:56.240Z,41.95
2019-02-06T06:51:29.214Z,42.35
2019-02-06T06:52:04.002Z,40.78
2019-02-06T06:52:37.321Z,41.53
2019-02-06T06:53:10.344Z,41.05
2019-02-06T06:53:43.358Z,41.10
2019-02-06T06:54:16.535Z,42.70
2019-02-06T06:54:49.755Z,41.55
2019-02-06T06:55:22.956Z,41.58
2019-02-06T06:55:56.007Z,42.78
2019-02-06T06:56:29.041Z,41.73
2019-02-06T06:57:02.260Z,42.13
2019-02-06T06:57:35.429Z,41.55
2019-02-06T06:58:08.812Z,41.90
2019-02-06T06:58:41.922Z,42.33
2019-02-06T06:59:15.523Z,41.25
2019-02-06T06:59:48.589Z,42.83
2019-02-06T07:00:25.320Z,41.23
2019-02-06T07:00:58.466Z,42.43
2019-02-06T07:01:31.712Z,41.63
2019-02-06T07:02:04.762Z,41.60
2019-02-06T07:02:39.449Z,40.90
2019-02-06T07:03:12.423Z,41.70
2019-02-06T07:03:46.954Z,42.15
2019-02-06T07:04:20.080Z,40.15
2019-02-06T07:04:53.120Z,42.25
2019-02-06T07:05:27.854Z,40.78
2019-02-06T07:06:00.968Z,41.90
2019-02-06T07:06:34.146Z,41.33
2019-02-06T07:07:07.338Z,42.00
2019-02-06T07:07:40.590Z,40.80
2019-02-06T07:08:13.819Z,41.35
2019-02-06T07:08:46.887Z,41.15
2019-02-06T07:09:19.833Z,41.15
2019-02-06T07:09:52.785Z,40.92
2019-02-06T07:10:25.913Z,40.98
2019-02-06T07:10:59.078Z,42.27
2019-02-06T07:11:32.045Z,42.15
2019-02-06T07:12:05.206Z,41.50
2019-02-06T07:12:38.261Z,42.40